Tiempo atmosférico en la estación meteorológica de Planoles, Girona (1149 m.)



Fecha
DESCASC
Temp. máxima en grados centígrados (hora)
DESCASC
Temp. mínima en grados centígrados (hora)
DESCASC
Temp. media en grados centígrados
DESCASC
Racha de viento máxima en m/sg (hora)
DESCASC
Velocidad máxima media en intervalos de 10 minutos(hora)
DESCASC
Precipitaciones diarias en mm
DESCASC
Precipitaciones de 00:00 a 06:00 en mm
DESCASC
Precipitaciones de 06:00 a 12:00 en mm
DESCASC
Precipitaciones de 12:00 a 18:00 en mm
DESCASC
Precipitaciones de 18:00 a 24:00 en mm
DESCASC
29-03-2020 14.2 (12:10) 3.3 (00:00) 8.7 7.5 (14:00) 3.06 (12:00) 0.6 0 0 0 0.6
28-03-2020 12.1 (12:20) 2.6 (03:10) 7.4 5.83 (13:20) 3.33 (13:20) 0 0 0 0 0
27-03-2020 8.6 (13:50) -3.8 (04:50) 2.4 6.11 (15:50) 3.33 (12:50) 0 0 0 0 0
26-03-2020 5.8 (13:20) -2.8 (-00:0) 1.5 7.78 (15:50) 3.89 (16:00) 1.6 0 1.6 0 0
25-03-2020 5.6 (12:30) -2.3 (-00:0) 1.6 8.33 (02:30) 4.17 (02:20) 2.4 2.2 0.2 0 0
24-03-2020 10.1 (12:40) 1.2 (00:00) 5.7 8.33 (13:40) 4.44 (13:20) 0 0 0 0 0
23-03-2020 9.2 (13:20) 4.2 (00:00) 6.7 6.67 (11:50) 4.17 (11:50) 0.2 0 0.2 0 0
22-03-2020 12.7 (15:30) 4.3 (07:00) 8.5 5.83 (14:30) 3.33 (11:10) 0 0 0 0 0
21-03-2020 13.1 (14:00) -1 (-00:0) 6.1 8.33 (14:20) 4.17 (12:50) 0 0 0 0 0
20-03-2020 14.5 (15:20) -0.3 (00:00) 7.1 7.78 (13:30) 3.89 (13:10) 0 0 0 0 0
19-03-2020 16.3 (14:00) 3 (00:00) 9.6 8.33 (14:20) 4.44 (16:30) 0 0 0 0 0
18-03-2020 14.8 (13:20) 4 (00:00) 9.4 7.78 (15:30) 4.44 (14:50) 0 0 0 0 0
17-03-2020 12.5 (14:50) 5.4 (00:00) 9 3.89 (08:20) 2.5 (08:20) 0.6 0.6 0 0 0
16-03-2020 6.8 (00:00) 4.8 (00:00) 5.8 9.17 (11:40) 3.89 (11:40) 14.2 1.4 0.8 6.4 5.6
15-03-2020 15.4 (14:50) 3.5 (00:00) 9.4 8.89 (16:20) 5.28 (16:30) 0 0 0 0 0
14-03-2020 15.1 (14:20) 6.3 (00:00) 10.7 8.33 (11:50) 5.28 (11:50) 0 0 0 0 0
13-03-2020 15.6 (14:40) 8.1 (07:50) 11.9 5.83 (15:00) 3.33 (15:40) 0.4 0.2 0.2 0 0
12-03-2020 23.7 (14:10) 8.3 (00:00) 16 7.78 (15:50) 3.89 (13:20) 0 0 0 0 0
11-03-2020 21.9 (13:40) 6.3 (00:00) 14.1 7.22 (14:40) 4.72 (14:20) 0 0 0 0 0
10-03-2020 14.9 (14:40) 3 (00:00) 8.9 10.83 (06:50) 4.44 (14:10) 0 0 0 0 0
09-03-2020 10.3 (15:20) 1.8 (00:00) 6.1 21.94 (14:00) 11.94 (13:40) 0 0 0 0 0
08-03-2020 15.1 (15:20) 1.4 (00:00) 8.3 10 (01:30) 6.94 (00:20) 0 0 0 0 0
07-03-2020 10.2 (17:20) -1 (-00:0) 4.6 20.83 (13:00) 11.94 (12:10) 0.6 0.4 0.2 0 0
06-03-2020 7.8 (14:30) -1 (-00:0) 3.4 21.67 (15:20) 10.28 (16:00) 0.2 0 0 0 0.2
05-03-2020 14.7 (12:10) 4.8 (00:00) 9.8 15 (22:40) 8.06 (09:30) 0.8 0 0 0.8 0
04-03-2020 12.7 (11:50) 1.9 (00:00) 7.3 15 (01:50) 8.89 (02:00) 0 0 0 0 0
03-03-2020 8 (15:00) -0.5 (-00:0) 3.8 15 (06:40) 7.78 (06:10) 0 0 0 0 0
02-03-2020 9.8 (10:30) -0.5 (-00:0) 4.7 23.06 (12:20) 11.67 (12:50) 19.8 13.6 6 0.2 0
01-03-2020 12.9 (16:20) 5.2 (00:00) 9 13.06 (14:00) 7.22 (14:20) 1 0 0 0 1
29-02-2020 14.8 (14:00) 2.7 (00:00) 8.8 17.78 (12:20) 10.28 (12:20) 0 0 0 0 0

Gráficas

Temp. máximas Temp. mínimas Temp. medias Precipitaciones Rachas de viento máximas Velocidades máximas media en intervalos de 10 minutos

Datos horarios

Fecha y hora oficial Temperatura (ºC) Velocidad del viento (km/h) Dirección del viento Racha (km/h) Dirección de racha Precipitación (mm) Presión (hPa) Tendencia (hPa) Humedad (%)
2020-03-29 23:00:00 6 4 Sudeste 6 Sudeste 0.2 -- -- 90
2020-03-29 22:00:00 6.5 0 Calma 10 Sudeste 0 -- -- 83
2020-03-29 21:00:00 7 3 Este 17 Sur 0 -- -- 84
2020-03-29 20:00:00 7.5 3 Este 5 Oeste 0 -- -- 87
2020-03-29 19:00:00 8.5 0 Calma 9 Nordeste 0.4 -- -- 80
2020-03-29 18:00:00 9.4 4 Sudoeste 15 Sudoeste 0 -- -- 69
2020-03-29 17:00:00 11.1 5 Sudeste 14 Sudeste 0 -- -- 52
2020-03-29 16:00:00 11.4 7 Este 18 Este 0 -- -- 50
2020-03-29 15:00:00 11.9 8 Sudeste 22 Sur 0 -- -- 48
2020-03-29 14:00:00 12.7 10 Este 27 Este 0 -- -- 45
2020-03-29 13:00:00 13.2 8 Sudeste 24 Sudeste 0 -- -- 37
2020-03-29 12:00:00 13.9 11 Este 21 Este 0 -- -- 36
2020-03-29 11:00:00 11.5 2 Sudeste 8 Este 0 -- -- 43
2020-03-29 10:00:00 8 4 Este 6 Este 0 -- -- 60
2020-03-29 09:00:00 4.3 4 Noroeste 8 Oeste 0 -- -- 65
2020-03-29 08:00:00 4 0 Calma 12 Noroeste 0 -- -- 66
2020-03-29 07:00:00 3.7 2 Oeste 7 Noroeste 0 -- -- 67
2020-03-29 06:00:00 3.8 2 Este 9 Noroeste 0 -- -- 66
2020-03-29 05:00:00 3.9 5 Noroeste 10 Noroeste 0 -- -- 64
2020-03-29 03:00:00 5 6 Noroeste 12 Noroeste 0 -- -- 62
2020-03-29 01:00:00 3.8 5 Noroeste 11 Noroeste 0 -- -- 67
2020-03-29 00:00:00 3.3 3 Noroeste 6 Este 0 -- -- 73
2020-03-28 23:00:00 3.6 2 Sudoeste 7 Nordeste 0 -- -- 76
2020-03-28 22:00:00 4.4 3 Este 10 Oeste 0 -- -- 75
2020-03-28 21:00:00 5.3 4 Noroeste 14 Noroeste 0 -- -- 72
2020-03-28 20:00:00 6.5 5 Noroeste 8 Noroeste 0 -- -- 71
2020-03-28 19:00:00 9 0 Calma 13 Este 0 -- -- 66
2020-03-28 18:00:00 10.5 5 Este 13 Este 0 -- -- 58
2020-03-28 17:00:00 10.7 6 Este 14 Este 0 -- -- 58
2020-03-28 16:00:00 10.4 2 Sudoeste 18 Sudoeste 0 -- -- 57
2020-03-28 15:00:00 10.9 3 Oeste 13 Oeste 0 -- -- 53
2020-03-28 14:00:00 11.4 7 Este 21 Este 0 -- -- 50
2020-03-28 13:00:00 11.8 7 Sudeste 21 Este 0 -- -- 51
2020-03-28 12:00:00 11.2 10 Este 18 Este 0 -- -- 54
2020-03-28 11:00:00 10.1 8 Este 13 Sudeste 0 -- -- 55
2020-03-28 10:00:00 8.7 6 Este 14 Este 0 -- -- 58
2020-03-28 09:00:00 6.5 3 Sudeste 8 Este 0 -- -- 66
2020-03-28 08:00:00 4.1 2 Sudoeste 7 Noroeste 0 -- -- 80
2020-03-28 07:00:00 2.9 3 Noroeste 6 Nordeste 0 -- -- 82
2020-03-28 06:00:00 2.9 2 Noroeste 5 Noroeste 0 -- -- 82
2020-03-28 05:00:00 2.8 0 Calma 6 Noroeste 0 -- -- 83
2020-03-28 04:00:00 2.7 4 Norte 6 Norte 0 -- -- 84
2020-03-28 03:00:00 2.7 3 Oeste 13 Este 0 -- -- 87
2020-03-28 02:00:00 3 0 Calma 4 Noroeste 0 -- -- 85
2020-03-28 01:00:00 2.8 0 Calma 9 Noroeste 0 -- -- 86
2020-03-28 00:00:00 3 2 Oeste 9 Noroeste 0 -- -- 86
2020-03-27 23:00:00 2.9 3 Oeste 10 Oeste 0 -- -- 88
2020-03-27 22:00:00 3.1 0 Calma 7 Oeste 0 -- -- 87
2020-03-27 21:00:00 3.3 2 Sur 6 Noroeste 0 -- -- 85
2020-03-27 20:00:00 3.6 3 Oeste 8 Este 0 -- -- 83
2020-03-27 19:00:00 4.7 3 Este 11 Este 0 -- -- 75
2020-03-27 18:00:00 5.9 6 Este 20 Este 0 -- -- 63
2020-03-27 17:00:00 7.2 9 Este 20 Este 0 -- -- 54
2020-03-27 16:00:00 7.5 7 Sudeste 22 Este 0 -- -- 53
2020-03-27 15:00:00 8.3 12 Este 20 Este 0 -- -- 48
2020-03-27 14:00:00 8.6 8 Este 21 Este 0 -- -- 44
2020-03-27 13:00:00 7.9 12 Este 21 Este 0 -- -- 44
2020-03-27 12:00:00 8.1 9 Este 17 Este 0 -- -- 41
2020-03-27 11:00:00 4.8 6 Este 14 Este 0 -- -- 46
2020-03-27 10:00:00 2 3 Sudeste 12 Este 0 -- -- 57
2020-03-27 09:00:00 0.5 3 Oeste 6 Oeste 0 -- -- 69
2020-03-27 08:00:00 -2 3 Noroeste 5 Sudoeste 0 -- -- 77
2020-03-27 07:00:00 -3.2 2 Noroeste 5 Oeste 0 -- -- 74
2020-03-27 06:00:00 -3.5 2 Noroeste 5 Noroeste 0 -- -- 74
2020-03-27 05:00:00 -3.5 5 Noroeste 10 Noroeste 0 -- -- 74
2020-03-27 04:00:00 -3.2 0 Calma 10 Oeste 0 -- -- 73
2020-03-27 03:00:00 -3 6 Noroeste 10 Noroeste 0 -- -- 73
2020-03-27 02:00:00 -2.9 0 Calma 8 Norte 0 -- -- 78
2020-03-27 01:00:00 -2.9 2 Oeste 9 Noroeste 0 -- -- 77
2020-03-27 00:00:00 -2.8 4 Noroeste 8 Noroeste 0 -- -- 77
2020-03-26 23:00:00 -2.7 4 Noroeste 6 Noroeste 0 -- -- 78
2020-03-26 22:00:00 -2.2 4 Noroeste 12 Noroeste 0 -- -- 80
2020-03-26 21:00:00 -1.9 4 Noroeste 10 Noroeste 0 -- -- 88
2020-03-26 20:00:00 -1 10 Noroeste 13 Noroeste 0 -- -- 85
2020-03-26 19:00:00 0.3 2 Oeste 12 Noroeste 0 -- -- 82
2020-03-26 18:00:00 0.3 7 Noroeste 16 Oeste 0 -- -- 83
2020-03-26 17:00:00 0.3 11 Noroeste 25 Este 0 -- -- 86
2020-03-26 16:00:00 2.2 14 Este 28 Este 0 -- -- 74
2020-03-26 15:00:00 3.8 9 Este 23 Este 0 -- -- 66
2020-03-26 14:00:00 4.6 13 Este 24 Este 0 -- -- 65
2020-03-26 13:00:00 4.8 8 Sudeste 21 Este 0 -- -- 68
2020-03-26 12:00:00 2.5 6 Sudeste 13 Sudeste 0 -- -- 85
2020-03-26 11:00:00 0.8 3 Noroeste 5 Noroeste 0.8 -- -- 91
2020-03-26 10:00:00 -0.3 0 Calma 3 Oeste 0.8 -- -- 94
2020-03-26 09:00:00 -0.5 0 Calma 4 Nordeste 0 -- -- 93
2020-03-26 08:00:00 -1.2 0 Calma 9 Norte 0 -- -- 92
2020-03-26 07:00:00 -1.9 4 Noroeste 8 Oeste 0 -- -- 94
2020-03-26 06:00:00 -1.7 3 Norte 8 Noroeste 0 -- -- 89
2020-03-26 05:00:00 -1 0 Calma 10 Oeste 0 -- -- 89
2020-03-26 04:00:00 -0.9 5 Noroeste 12 Noroeste 0 -- -- 87
2020-03-26 03:00:00 -2 0 Calma 8 Este 0 -- -- 94
2020-03-26 02:00:00 -1.7 0 Calma 7 Noroeste 0 -- -- 94
2020-03-26 01:00:00 -1.4 5 Noroeste 8 Noroeste 0 -- -- 93
2020-03-26 00:00:00 -0.5 4 Noroeste 6 Norte 0 -- -- 94
2020-03-25 23:00:00 0.3 3 Este 5 Nordeste 0 -- -- 92
2020-03-25 22:00:00 0.6 3 Este 6 Este 0 -- -- 91
2020-03-25 21:00:00 0.5 3 Oeste 5 Noroeste 0 -- -- 91
2020-03-25 20:00:00 0.3 2 Sudeste 6 Sudeste 0 -- -- 91
2020-03-25 19:00:00 0.8 3 Sudeste 11 Sudeste 0 -- -- 88
2020-03-25 18:00:00 1.8 4 Sudeste 9 Sudeste 0 -- -- 84
2020-03-25 17:00:00 2.4 2 Este 9 Este 0 -- -- 78
2020-03-25 16:00:00 3.2 3 Sudeste 11 Sudeste 0 -- -- 69
2020-03-25 15:00:00 4.1 5 Este 15 Este 0 -- -- 65
2020-03-25 14:00:00 4.8 4 Oeste 10 Sudeste 0 -- -- 57
2020-03-25 13:00:00 4.4 7 Sudeste 13 Sudeste 0 -- -- 54
2020-03-25 12:00:00 4.5 6 Este 17 Este 0 -- -- 55
2020-03-25 11:00:00 3.2 5 Sudeste 11 Este 0 -- -- 59
2020-03-25 10:00:00 3.7 4 Sudeste 9 Sudoeste 0 -- -- 51
2020-03-25 09:00:00 0.8 3 Oeste 9 Noroeste 0.2 -- -- 74
2020-03-25 08:00:00 -1.7 4 Oeste 6 Oeste 0 -- -- 88
2020-03-25 07:00:00 -2.2 2 Norte 6 Oeste 0 -- -- 90
2020-03-25 06:00:00 -2.2 3 Sudeste 17 Este 1.2 -- -- 93
2020-03-25 05:00:00 -1.5 0 Calma 4 Sur 0.4 -- -- 93
2020-03-25 04:00:00 -1.2 2 Nordeste 16 Este 0.2 -- -- 88
2020-03-25 03:00:00 -0.6 10 Este 30 Este 0.4 -- -- 83
2020-03-25 02:00:00 1 8 Este 14 Sudeste 0 -- -- 87
2020-03-25 01:00:00 1.2 7 Este 14 Sudeste 0 -- -- 89
2020-03-25 00:00:00 1.2 6 Este 15 Este 0 -- -- 89
2020-03-24 23:00:00 1.4 5 Este 14 Este 0 -- -- 88
2020-03-24 22:00:00 1.9 9 Este 15 Este 0 -- -- 86
2020-03-24 21:00:00 2.5 4 Sudeste 13 Sudeste 0 -- -- 86
2020-03-24 20:00:00 2.9 5 Este 18 Sudeste 0 -- -- 85
2020-03-24 19:00:00 3.1 13 Este 24 Este 0 -- -- 86
2020-03-24 18:00:00 4.3 7 Este 19 Este 0 -- -- 83
2020-03-24 17:00:00 4.6 7 Este 24 Este 0 -- -- 83
2020-03-24 16:00:00 5.6 10 Este 22 Este 0 -- -- 81
2020-03-24 15:00:00 7.8 13 Este 26 Este 0 -- -- 69
2020-03-24 14:00:00 9.2 13 Sudeste 30 Este 0 -- -- 63
2020-03-24 13:00:00 9.8 14 Este 29 Sudeste 0 -- -- 64
2020-03-24 12:00:00 9.8 13 Sudeste 27 Este 0 -- -- 61
2020-03-24 11:00:00 9.1 11 Sudeste 18 Este 0 -- -- 63
2020-03-24 10:00:00 7 10 Este 17 Este 0 -- -- 77
2020-03-24 09:00:00 4.4 5 Este 9 Este 0 -- -- 88
2020-03-24 08:00:00 3.5 5 Noroeste 10 Noroeste 0 -- -- 87
2020-03-24 07:00:00 3.2 5 Noroeste 9 Noroeste 0 -- -- 88
2020-03-24 06:00:00 3.6 2 Oeste 7 Noroeste 0 -- -- 91
2020-03-24 05:00:00 4 3 Este 5 Sudeste 0 -- -- 92
2020-03-24 04:00:00 4.3 0 Calma 8 Este 0 -- -- 96
2020-03-24 03:00:00 4.6 3 Este 6 Este 0 -- -- 95
2020-03-24 02:00:00 4.9 0 Calma 3 Sudoeste 0 -- -- 94
2020-03-24 01:00:00 4.9 0 Calma 4 Sudeste 0 -- -- 94
2020-03-24 00:00:00 5 2 Sudeste 6 Este 0 -- -- 94
2020-03-23 23:00:00 5.2 0 Calma 4 Sudeste 0 -- -- 92
2020-03-23 22:00:00 5.4 3 Sudeste 11 Este 0 -- -- 91
2020-03-23 21:00:00 5.6 6 Este 13 Este 0 -- -- 88
2020-03-23 20:00:00 5.7 0 Calma 4 Este 0 -- -- 84
2020-03-23 19:00:00 7 0 Calma 13 Sudeste 0 -- -- 78
2020-03-23 18:00:00 7.4 6 Sudeste 15 Este 0 -- -- 77
2020-03-23 17:00:00 7.7 5 Este 20 Este 0 -- -- 80
2020-03-23 16:00:00 8.2 8 Sudeste 16 Sudeste 0 -- -- 77
2020-03-23 15:00:00 8.3 4 Este 15 Este 0 -- -- 80
2020-03-23 14:00:00 8.3 6 Sudeste 17 Este 0 -- -- 81
2020-03-23 13:00:00 9 8 Este 19 Este 0 -- -- 71
2020-03-23 12:00:00 8.7 12 Este 24 Este 0 -- -- 69
2020-03-23 11:00:00 7.9 5 Sudeste 11 Este 0 -- -- 75
2020-03-23 10:00:00 6.7 0 Calma 5 Sudoeste 0 -- -- 84
2020-03-23 09:00:00 5.2 2 Oeste 5 Noroeste 0.2 -- -- 92
2020-03-23 08:00:00 4.8 0 Calma 6 Sudeste 0 -- -- 89
2020-03-23 07:00:00 4.9 3 Este 8 Norte 0 -- -- 84
2020-03-23 06:00:00 5 6 Noroeste 11 Noroeste 0 -- -- 82
2020-03-23 05:00:00 5 2 Noroeste 8 Noroeste 0 -- -- 81
2020-03-23 04:00:00 5 5 Noroeste 9 Noroeste 0 -- -- 80
2020-03-23 03:00:00 4.6 5 Noroeste 10 Noroeste 0 -- -- 81
2020-03-23 02:00:00 4.2 3 Noroeste 6 Noroeste 0 -- -- 84
2020-03-23 01:00:00 4.7 0 Calma 5 Noroeste 0 -- -- 83
2020-03-23 00:00:00 5.9 4 Oeste 6 Oeste 0 -- -- 82
2020-03-22 23:00:00 6.1 2 Noroeste 5 Oeste 0 -- -- 81
2020-03-22 22:00:00 6.4 0 Calma 7 Este 0 -- -- 78
2020-03-22 21:00:00 6.8 0 Calma 5 Sudeste 0 -- -- 77
2020-03-22 20:00:00 7.2 3 Sur 20 Este 0 -- -- 75
2020-03-22 19:00:00 8.3 8 Este 15 Este 0 -- -- 71
2020-03-22 18:00:00 9.8 10 Este 19 Sudeste 0 -- -- 63
2020-03-22 17:00:00 11.8 5 Sudeste 21 Sudeste 0 -- -- 53
2020-03-22 16:00:00 12.3 10 Este 21 Sudeste 0 -- -- 54
2020-03-22 15:00:00 11.9 9 Sur 21 Este 0 -- -- 50
2020-03-22 14:00:00 10.4 8 Este 18 Este 0 -- -- 62
2020-03-22 13:00:00 9.1 10 Este 20 Este 0 -- -- 69
2020-03-22 12:00:00 8.1 6 Este 19 Este 0 -- -- 71
2020-03-22 11:00:00 8.2 9 Este 17 Este 0 -- -- 73
2020-03-22 10:00:00 7.1 6 Este 14 Este 0 -- -- 78
2020-03-22 09:00:00 6.1 0 Calma 3 Sudeste 0 -- -- 85
2020-03-22 08:00:00 4.7 0 Calma 4 Noroeste 0 -- -- 91
2020-03-22 07:00:00 4.3 0 Calma 7 Este 0 -- -- 91
2020-03-22 06:00:00 4.9 0 Calma 6 Este 0 -- -- 89
2020-03-22 05:00:00 5.1 3 Este 8 Sudeste 0 -- -- 93
2020-03-22 04:00:00 5.5 2 Sudoeste 4 Nordeste 0 -- -- 90
2020-03-22 03:00:00 5.8 0 Calma 4 Este 0 -- -- 88
2020-03-22 02:00:00 6 0 Calma 5 Sudeste 0 -- -- 88
2020-03-22 01:00:00 6.2 3 Este 5 Este 0 -- -- 86
2020-03-22 00:00:00 6.4 0 Calma 6 Sudeste 0 -- -- 84
2020-03-21 23:00:00 6.6 3 Sudeste 9 Este 0 -- -- 82
2020-03-21 22:00:00 7 4 Sudeste 10 Este 0 -- -- 81
2020-03-21 21:00:00 7.4 3 Este 9 Este 0 -- -- 76
2020-03-21 20:00:00 7.8 4 Sudeste 15 Este 0 -- -- 73
2020-03-21 19:00:00 8.2 8 Este 18 Este 0 -- -- 70
2020-03-21 18:00:00 8.9 9 Este 18 Este 0 -- -- 68
2020-03-21 17:00:00 9.8 8 Este 25 Este 0 -- -- 65
2020-03-21 16:00:00 11 12 Este 27 Este 0 -- -- 58
2020-03-21 15:00:00 12.9 14 Este 30 Este 0 -- -- 52
2020-03-21 14:00:00 13.1 13 Este 28 Este 0 -- -- 48
2020-03-21 13:00:00 12.5 13 Este 26 Este 0 -- -- 50
2020-03-21 12:00:00 11.4 14 Este 23 Este 0 -- -- 49
2020-03-21 11:00:00 10.2 10 Este 21 Este 0 -- -- 50
2020-03-21 10:00:00 7.7 5 Sudeste 8 Sudeste 0 -- -- 56
2020-03-21 09:00:00 3.8 2 Sur 4 Sudeste 0 -- -- 68
2020-03-21 08:00:00 0.5 0 Calma 12 Noroeste 0 -- -- 70
2020-03-21 07:00:00 -0.9 6 Noroeste 10 Noroeste 0 -- -- 74
2020-03-21 06:00:00 -0.4 2 Noroeste 14 Oeste 0 -- -- 72
2020-03-21 05:00:00 -0.8 0 Calma 6 Noroeste 0 -- -- 78
2020-03-21 04:00:00 -0.1 0 Calma 4 Oeste 0 -- -- 82
2020-03-21 03:00:00 1.1 3 Noroeste 15 Noroeste 0 -- -- 77
2020-03-21 02:00:00 1.1 8 Noroeste 15 Noroeste 0 -- -- 82
2020-03-21 01:00:00 1.2 3 Noroeste 8 Noroeste 0 -- -- 83
2020-03-21 00:00:00 2.1 2 Noroeste 14 Noroeste 0 -- -- 82
2020-03-20 23:00:00 2.9 3 Noroeste 12 Noroeste 0 -- -- 80
2020-03-20 22:00:00 4.1 5 Noroeste 10 Noroeste 0 -- -- 77
2020-03-20 21:00:00 5.6 4 Noroeste 8 Noroeste 0 -- -- 72
2020-03-20 20:00:00 7.5 0 Calma 18 Este 0 -- -- 66
2020-03-20 19:00:00 9.2 8 Este 18 Este 0 -- -- 58
2020-03-20 18:00:00 11.2 8 Este 19 Este 0 -- -- 52
2020-03-20 17:00:00 12.6 9 Este 22 Este 0 -- -- 46
2020-03-20 16:00:00 14 10 Sudeste 21 Sudeste 0 -- -- 38
2020-03-20 15:00:00 14.4 10 Sudeste 23 Este 0 -- -- 33
2020-03-20 14:00:00 14 10 Sudeste 28 Este 0 -- -- 33
2020-03-20 13:00:00 14 10 Este 26 Este 0 -- -- 38
2020-03-20 12:00:00 12.4 10 Este 23 Este 0 -- -- 42
2020-03-20 11:00:00 11.3 12 Este 20 Este 0 -- -- 44
2020-03-20 10:00:00 8.4 6 Sudeste 10 Sudeste 0 -- -- 50
2020-03-20 09:00:00 4.6 2 Sudeste 5 Oeste 0 -- -- 65
2020-03-20 08:00:00 1.1 5 Noroeste 10 Noroeste 0 -- -- 61
2020-03-20 07:00:00 0 2 Este 13 Noroeste 0 -- -- 75
2020-03-20 06:00:00 1.1 8 Noroeste 17 Noroeste 0 -- -- 74
2020-03-20 05:00:00 1.1 5 Noroeste 13 Noroeste 0 -- -- 80
2020-03-20 04:00:00 1.6 5 Noroeste 14 Noroeste 0 -- -- 81
2020-03-20 03:00:00 2 4 Noroeste 14 Noroeste 0 -- -- 81
2020-03-20 02:00:00 2.3 5 Noroeste 13 Noroeste 0 -- -- 81
2020-03-20 01:00:00 2.8 5 Noroeste 12 Noroeste 0 -- -- 81
2020-03-20 00:00:00 3.7 8 Noroeste 14 Oeste 0 -- -- 80
2020-03-19 23:00:00 4.4 5 Noroeste 12 Noroeste 0 -- -- 79
2020-03-19 22:00:00 5.2 5 Noroeste 10 Noroeste 0 -- -- 77
2020-03-19 21:00:00 6.6 4 Noroeste 8 Noroeste 0 -- -- 71
2020-03-19 20:00:00 8.4 2 Nordeste 15 Este 0 -- -- 66
2020-03-19 19:00:00 10.4 8 Este 18 Este 0 -- -- 59
2020-03-19 18:00:00 12.8 6 Sudeste 22 Sudeste 0 -- -- 49
2020-03-19 17:00:00 14.7 8 Sudeste 28 Este 0 -- -- 44
2020-03-19 16:00:00 15.9 12 Este 24 Sudeste 0 -- -- 39
2020-03-19 15:00:00 16 6 Sur 30 Este 0 -- -- 38
2020-03-19 14:00:00 16.3 6 Sudeste 24 Sudeste 0 -- -- 36
2020-03-19 13:00:00 15.8 10 Sudeste 24 Este 0 -- -- 33
2020-03-19 12:00:00 15.7 10 Este 24 Sudeste 0 -- -- 29
2020-03-19 11:00:00 15.4 10 Este 18 Este 0 -- -- 31
2020-03-19 10:00:00 11.8 2 Sur 5 Sudeste 0 -- -- 41
2020-03-19 09:00:00 7.7 0 Calma 4 Oeste 0 -- -- 58
2020-03-19 08:00:00 3.9 0 Calma 6 Noroeste 0 -- -- 64
2020-03-19 07:00:00 3.1 3 Oeste 15 Noroeste 0 -- -- 66
2020-03-19 06:00:00 4.6 9 Noroeste 18 Noroeste 0 -- -- 57
2020-03-19 05:00:00 5 10 Noroeste 18 Noroeste 0 -- -- 57
2020-03-19 04:00:00 5.3 13 Noroeste 19 Noroeste 0 -- -- 56
2020-03-19 03:00:00 5.7 13 Noroeste 18 Noroeste 0 -- -- 59
2020-03-19 02:00:00 5.7 8 Noroeste 16 Noroeste 0 -- -- 65
2020-03-19 01:00:00 6.2 7 Noroeste 17 Noroeste 0 -- -- 68
2020-03-19 00:00:00 6.1 8 Noroeste 14 Oeste 0 -- -- 73
2020-03-18 23:00:00 6.3 8 Noroeste 17 Noroeste 0 -- -- 78
2020-03-18 22:00:00 7 10 Noroeste 15 Noroeste 0 -- -- 80
2020-03-18 21:00:00 7 4 Noroeste 13 Oeste 0 -- -- 80
2020-03-18 20:00:00 8.4 5 Noroeste 8 Noroeste 0 -- -- 79
2020-03-18 19:00:00 10.5 0 Calma 13 Este 0 -- -- 71
2020-03-18 18:00:00 11.8 9 Este 18 Este 0 -- -- 65
2020-03-18 17:00:00 12.9 8 Este 21 Este 0 -- -- 61
2020-03-18 16:00:00 13.9 10 Este 28 Este 0 -- -- 60
2020-03-18 15:00:00 14.6 13 Este 26 Este 0 -- -- 58
2020-03-18 14:00:00 14.8 14 Este 24 Este 0 -- -- 57
2020-03-18 13:00:00 14.4 10 Este 17 Este 0 -- -- 56
2020-03-18 12:00:00 13.2 6 Sudeste 12 Este 0 -- -- 62
2020-03-18 11:00:00 10.8 2 Sudeste 5 Sudeste 0 -- -- 76
2020-03-18 10:00:00 8.6 0 Calma 6 Este 0 -- -- 87
2020-03-18 09:00:00 6.5 2 Norte 8 Oeste 0 -- -- 91
2020-03-18 08:00:00 4.7 0 Calma 9 Noroeste 0 -- -- 93
2020-03-18 07:00:00 4.2 2 Noroeste 7 Noroeste 0 -- -- 94
2020-03-18 06:00:00 4.4 4 Este 9 Noroeste 0 -- -- 94
2020-03-18 05:00:00 4.2 3 Noroeste 9 Noroeste 0 -- -- 95
2020-03-18 04:00:00 4.4 0 Calma 6 Noroeste 0 -- -- 94
2020-03-18 03:00:00 4.6 0 Calma 6 Noroeste 0 -- -- 95
2020-03-18 02:00:00 4.7 0 Calma 4 Nordeste 0 -- -- 94
2020-03-18 01:00:00 5.3 0 Calma 6 Noroeste 0 -- -- 93
2020-03-18 00:00:00 5.5 0 Calma 5 Sudeste 0 -- -- 93
2020-03-17 23:00:00 5.9 3 Noroeste 5 Noroeste 0 -- -- 92
2020-03-17 22:00:00 6.7 4 Noroeste 11 Noroeste 0 -- -- 90
2020-03-17 21:00:00 7.1 4 Noroeste 8 Noroeste 0 -- -- 89
2020-03-17 20:00:00 8.1 0 Calma 6 Norte 0 -- -- 88
2020-03-17 19:00:00 9.1 0 Calma 9 Este 0 -- -- 84
2020-03-17 18:00:00 10.1 0 Calma 9 Este 0 -- -- 80
2020-03-17 17:00:00 10.8 3 Este 12 Este 0 -- -- 77
2020-03-17 16:00:00 11.6 5 Este 12 Este 0 -- -- 67
2020-03-17 15:00:00 12.4 5 Este 10 Este 0 -- -- 61
2020-03-17 14:00:00 11.7 3 Sur 6 Sudoeste 0 -- -- 61
2020-03-17 13:00:00 10.9 2 Sudoeste 6 Sudoeste 0 -- -- 61
2020-03-17 12:00:00 10.1 3 Oeste 6 Sudoeste 0 -- -- 70
2020-03-17 11:00:00 8.3 2 Oeste 8 Noroeste 0 -- -- 90
2020-03-17 10:00:00 7 2 Sudoeste 12 Oeste 0 -- -- 92
2020-03-17 09:00:00 6.1 5 Noroeste 14 Oeste 0 -- -- 92
2020-03-17 08:00:00 5.7 7 Oeste 13 Noroeste 0 -- -- 93
2020-03-17 07:00:00 5.4 8 Noroeste 12 Noroeste 0 -- -- 94
2020-03-17 06:00:00 5.5 4 Noroeste 10 Noroeste 0.2 -- -- 95
2020-03-17 05:00:00 5.6 4 Oeste 9 Noroeste 0.4 -- -- 94
2020-03-17 04:00:00 5.7 3 Oeste 9 Noroeste 0 -- -- 93
2020-03-17 03:00:00 5.7 0 Calma 8 Noroeste 0 -- -- 92
2020-03-17 02:00:00 5.8 3 Noroeste 8 Noroeste 0 -- -- 93
2020-03-17 01:00:00 6 2 Sur 13 Sudeste 0 -- -- 94
2020-03-17 00:00:00 5.9 2 Este 10 Este 0 -- -- 94
2020-03-16 23:00:00 5.8 3 Nordeste 6 Este 0 -- -- 95
2020-03-16 22:00:00 5.5 0 Calma 5 Noroeste 0 -- -- 97
2020-03-16 21:00:00 5.3 4 Oeste 8 Oeste 2.4 -- -- 96
2020-03-16 20:00:00 5.3 0 Calma 13 Noroeste 3 -- -- 96
2020-03-16 19:00:00 5.4 8 Noroeste 13 Noroeste 0.2 -- -- 95
2020-03-16 18:00:00 5.5 3 Noroeste 7 Oeste 0.2 -- -- 94
2020-03-16 17:00:00 5.9 3 Este 17 Sudeste 1.2 -- -- 91
2020-03-16 16:00:00 6 3 Noroeste 14 Este 1 -- -- 90
2020-03-16 15:00:00 5.8 3 Este 14 Este 1.8 -- -- 92
2020-03-16 14:00:00 5.3 3 Este 9 Este 0.2 -- -- 93
2020-03-16 13:00:00 4.8 7 Noroeste 13 Noroeste 2 -- -- 90
2020-03-16 12:00:00 5.7 8 Este 33 Sudeste 0.2 -- -- 81
2020-03-16 11:00:00 6.2 7 Este 17 Este 0 -- -- 88
2020-03-16 10:00:00 5.9 6 Este 15 Este 0.6 -- -- 93
2020-03-16 09:00:00 6.2 4 Sudeste 12 Este 0 -- -- 95
2020-03-16 08:00:00 5.9 5 Este 18 Este 0 -- -- 97
2020-03-16 07:00:00 5.8 5 Este 8 Este 0 -- -- 97
2020-03-16 06:00:00 5.7 4 Sudeste 12 Este 0.2 -- -- 97
2020-03-16 05:00:00 5.7 6 Este 17 Este 0 -- -- 96
2020-03-16 04:00:00 5.9 9 Este 19 Este 0 -- -- 95
2020-03-16 03:00:00 6.1 7 Este 21 Este 0 -- -- 92
2020-03-16 02:00:00 6.2 7 Este 19 Este 0.8 -- -- 93
2020-03-16 01:00:00 6.5 8 Este 19 Este 0.4 -- -- 93
2020-03-16 00:00:00 6.8 6 Este 14 Este 0 -- -- 90
2020-03-15 23:00:00 7.2 7 Sudoeste 18 Este 0 -- -- 89
2020-03-15 22:00:00 8.1 7 Este 16 Este 0 -- -- 86
2020-03-15 21:00:00 8.6 8 Este 18 Este 0 -- -- 84
2020-03-15 20:00:00 9.2 9 Este 18 Este 0 -- -- 81
2020-03-15 19:00:00 9.9 8 Este 19 Este 0 -- -- 78
2020-03-15 18:00:00 11.5 12 Este 23 Este 0 -- -- 71
2020-03-15 17:00:00 14 14 Este 32 Este 0 -- -- 61
2020-03-15 16:00:00 14.7 14 Este 31 Este 0 -- -- 55
2020-03-15 15:00:00 15.4 17 Este 27 Este 0 -- -- 47
2020-03-15 14:00:00 14.3 16 Este 26 Este 0 -- -- 56
2020-03-15 13:00:00 14.7 17 Este 29 Este 0 -- -- 58
2020-03-15 12:00:00 13.9 14 Este 27 Sudeste 0 -- -- 62
2020-03-15 11:00:00 12.6 10 Este 20 Este 0 -- -- 65
2020-03-15 10:00:00 10 7 Sudeste 12 Sudeste 0 -- -- 69
2020-03-15 09:00:00 7.2 3 Este 6 Sudeste 0 -- -- 77
2020-03-15 08:00:00 4 0 Calma 5 Este 0 -- -- 88
2020-03-15 07:00:00 3.8 2 Sudoeste 9 Noroeste 0 -- -- 85
2020-03-15 06:00:00 5.1 4 Noroeste 8 Noroeste 0 -- -- 82
2020-03-15 05:00:00 6.9 5 Norte 10 Noroeste 0 -- -- 81
2020-03-15 04:00:00 6.5 8 Noroeste 13 Noroeste 0 -- -- 82
2020-03-15 03:00:00 7.1 0 Calma 7 Sudeste 0 -- -- 85
2020-03-15 02:00:00 7.3 0 Calma 5 Oeste 0 -- -- 86
2020-03-15 01:00:00 7.6 0 Calma 6 Este 0 -- -- 89
2020-03-15 00:00:00 8 3 Este 7 Este 0 -- -- 88
2020-03-14 23:00:00 8.4 3 Este 7 Oeste 0 -- -- 87
2020-03-14 22:00:00 8.4 2 Este 5 Este 0 -- -- 87
2020-03-14 21:00:00 8.9 2 Oeste 10 Este 0 -- -- 86
2020-03-14 20:00:00 9.6 4 Este 13 Este 0 -- -- 83
2020-03-14 19:00:00 10.2 6 Este 15 Este 0 -- -- 80
2020-03-14 18:00:00 10.9 7 Este 18 Este 0 -- -- 75
2020-03-14 17:00:00 11.5 12 Este 24 Sudeste 0 -- -- 71
2020-03-14 16:00:00 13.4 11 Este 27 Este 0 -- -- 64
2020-03-14 15:00:00 14.7 12 Sudeste 28 Este 0 -- -- 60
2020-03-14 14:00:00 14.8 13 Este 30 Este 0 -- -- 60
2020-03-14 13:00:00 13.9 16 Este 29 Este 0 -- -- 61
2020-03-14 12:00:00 13.4 19 Este 30 Este 0 -- -- 66
2020-03-14 11:00:00 12.7 8 Este 16 Este 0 -- -- 68
2020-03-14 10:00:00 9.6 5 Sudoeste 9 Sudoeste 0 -- -- 78
2020-03-14 09:00:00 7.2 4 Nordeste 9 Oeste 0 -- -- 87
2020-03-14 08:00:00 6.6 3 Noroeste 6 Noroeste 0 -- -- 88
2020-03-14 07:00:00 6.4 0 Calma 4 Norte 0 -- -- 88
2020-03-14 06:00:00 7.4 0 Calma 4 Sudeste 0 -- -- 88
2020-03-14 05:00:00 7.4 3 Oeste 7 Este 0 -- -- 88
2020-03-14 04:00:00 7.7 3 Sudeste 5 Sur 0 -- -- 91
2020-03-14 03:00:00 8 0 Calma 4 Sur 0 -- -- 90
2020-03-14 02:00:00 8.3 0 Calma 3 Sudeste 0 -- -- 88
2020-03-14 01:00:00 8.7 0 Calma 4 Sudeste 0 -- -- 86
2020-03-14 00:00:00 9.1 3 Este 8 Este 0 -- -- 84
2020-03-13 23:00:00 9.6 2 Sudoeste 3 Sur 0 -- -- 82
2020-03-13 22:00:00 10 0 Calma 4 Sudoeste 0 -- -- 81
2020-03-13 21:00:00 10.2 3 Este 7 Este 0 -- -- 79
2020-03-13 20:00:00 10.7 3 Sudeste 13 Este 0 -- -- 77
2020-03-13 19:00:00 11.5 7 Este 19 Este 0 -- -- 74
2020-03-13 18:00:00 12.3 9 Este 17 Este 0 -- -- 71
2020-03-13 17:00:00 13.2 11 Este 20 Este 0 -- -- 67
2020-03-13 16:00:00 13.9 10 Este 19 Este 0 -- -- 64
2020-03-13 15:00:00 15.1 12 Este 21 Este 0 -- -- 61
2020-03-13 14:00:00 15.2 8 Este 15 Sudeste 0 -- -- 63
2020-03-13 13:00:00 14.3 8 Sudeste 17 Sudeste 0 -- -- 68
2020-03-13 12:00:00 13 11 Este 18 Este 0 -- -- 74
2020-03-13 11:00:00 12.4 6 Este 16 Este 0 -- -- 81
2020-03-13 10:00:00 9.7 9 Este 19 Este 0.2 -- -- 92
2020-03-13 09:00:00 8.9 2 Este 8 Nordeste 0 -- -- 93
2020-03-13 08:00:00 8.2 3 Este 7 Este 0 -- -- 92
2020-03-13 07:00:00 8.4 4 Noroeste 7 Noroeste 0 -- -- 92
2020-03-13 06:00:00 9.1 0 Calma 16 Este 0 -- -- 89
2020-03-13 05:00:00 9.4 9 Este 16 Nordeste 0.2 -- -- 88
2020-03-13 04:00:00 10.1 7 Nordeste 15 Nordeste 0 -- -- 83
2020-03-13 03:00:00 9.8 6 Noroeste 17 Oeste 0 -- -- 83
2020-03-13 02:00:00 10.3 4 Sur 19 Este 0 -- -- 77
2020-03-13 01:00:00 10.8 4 Nordeste 7 Norte 0 -- -- 76
2020-03-13 00:00:00 11 0 Calma 12 Oeste 0 -- -- 73
2020-03-12 23:00:00 11.4 4 Noroeste 10 Norte 0 -- -- 71
2020-03-12 22:00:00 11.9 6 Noroeste 10 Noroeste 0 -- -- 68
2020-03-12 21:00:00 12.9 6 Noroeste 12 Noroeste 0 -- -- 64
2020-03-12 20:00:00 14.9 6 Noroeste 12 Noroeste 0 -- -- 58
2020-03-12 19:00:00 17.4 2 Este 14 Este 0 -- -- 51
2020-03-12 18:00:00 19.6 7 Sudeste 21 Este 0 -- -- 44
2020-03-12 17:00:00 21 13 Sudeste 24 Sudeste 0 -- -- 41
2020-03-12 16:00:00 22.2 8 Sudoeste 28 Sudeste 0 -- -- 39
2020-03-12 15:00:00 22.9 5 Nordeste 28 Sur 0 -- -- 35
2020-03-12 14:00:00 23.5 11 Oeste 24 Sudoeste 0 -- -- 30
2020-03-12 13:00:00 23.1 12 Este 22 Este 0 -- -- 29
2020-03-12 12:00:00 21.9 9 Este 17 Nordeste 0 -- -- 28
2020-03-12 11:00:00 19.7 3 Sudeste 5 Sudeste 0 -- -- 31
2020-03-12 10:00:00 16.9 2 Sudeste 4 Sur 0 -- -- 46
2020-03-12 09:00:00 12.9 0 Calma 15 Noroeste 0 -- -- 56
2020-03-12 08:00:00 10 8 Noroeste 16 Noroeste 0 -- -- 58
2020-03-12 07:00:00 8.4 0 Calma 5 Sudeste 0 -- -- 63
2020-03-12 06:00:00 8.9 3 Noroeste 9 Noroeste 0 -- -- 61
2020-03-12 05:00:00 8.6 3 Noroeste 7 Noroeste 0 -- -- 62
2020-03-12 04:00:00 8.8 0 Calma 9 Noroeste 0 -- -- 62
2020-03-12 03:00:00 9.1 2 Oeste 11 Oeste 0 -- -- 63
2020-03-12 02:00:00 9.3 6 Noroeste 12 Noroeste 0 -- -- 63
2020-03-12 01:00:00 9 4 Oeste 10 Noroeste 0 -- -- 65
2020-03-12 00:00:00 9.4 0 Calma 13 Noroeste 0 -- -- 65
2020-03-11 23:00:00 9.7 4 Noroeste 11 Noroeste 0 -- -- 66
2020-03-11 22:00:00 10.1 3 Noroeste 8 Noroeste 0 -- -- 66
2020-03-11 21:00:00 11.1 5 Noroeste 15 Oeste 0 -- -- 64
2020-03-11 20:00:00 12.9 9 Noroeste 14 Noroeste 0 -- -- 60
2020-03-11 19:00:00 15.4 0 Calma 10 Sudeste 0 -- -- 52
2020-03-11 18:00:00 18.3 5 Sudeste 21 Este 0 -- -- 45
2020-03-11 17:00:00 20.5 11 Este 23 Este 0 -- -- 39
2020-03-11 16:00:00 21.4 14 Este 26 Este 0 -- -- 39
2020-03-11 15:00:00 21.6 14 Este 26 Este 0 -- -- 40
2020-03-11 14:00:00 21.8 14 Este 24 Este 0 -- -- 35
2020-03-11 13:00:00 21.2 12 Este 23 Sudeste 0 -- -- 34
2020-03-11 12:00:00 20 8 Este 17 Sudeste 0 -- -- 32
2020-03-11 11:00:00 18.9 7 Este 16 Este 0 -- -- 32
2020-03-11 10:00:00 15.7 4 Sudeste 13 Sudeste 0 -- -- 35
2020-03-11 09:00:00 12.6 0 Calma 5 Oeste 0 -- -- 41
2020-03-11 08:00:00 8.6 0 Calma 6 Noroeste 0 -- -- 44
2020-03-11 07:00:00 8.5 2 Nordeste 9 Norte 0 -- -- 45
2020-03-11 06:00:00 8.1 2 Este 12 Noroeste 0 -- -- 49
2020-03-11 05:00:00 7.9 6 Noroeste 12 Noroeste 0 -- -- 46
2020-03-11 04:00:00 7.3 4 Oeste 9 Norte 0 -- -- 48
2020-03-11 03:00:00 7.2 3 Noroeste 12 Noroeste 0 -- -- 49
2020-03-11 02:00:00 7.4 7 Noroeste 15 Noroeste 0 -- -- 47
2020-03-11 01:00:00 6.4 5 Oeste 10 Oeste 0 -- -- 71
2020-03-11 00:00:00 6.6 3 Oeste 10 Noroeste 0 -- -- 77
2020-03-10 23:00:00 7.4 3 Nordeste 13 Este 0 -- -- 78
2020-03-10 22:00:00 9.8 7 Este 20 Oeste 0 -- -- 68
2020-03-10 21:00:00 9.9 3 Oeste 17 Noroeste 0 -- -- 62
2020-03-10 20:00:00 9.1 0 Calma 13 Noroeste 0 -- -- 73
2020-03-10 19:00:00 10.2 3 Noroeste 12 Este 0 -- -- 70
2020-03-10 18:00:00 11.4 8 Sudeste 27 Este 0 -- -- 66
2020-03-10 17:00:00 12.5 11 Este 24 Sudeste 0 -- -- 62
2020-03-10 16:00:00 13.9 10 Este 25 Este 0 -- -- 58
2020-03-10 15:00:00 14.3 12 Sudeste 28 Este 0 -- -- 54
2020-03-10 14:00:00 14.6 12 Este 24 Sur 0 -- -- 53
2020-03-10 13:00:00 11.4 7 Sudeste 27 Este 0 -- -- 59
2020-03-10 12:00:00 10.5 10 Este 31 Este 0 -- -- 58
2020-03-10 11:00:00 10 12 Este 28 Este 0 -- -- 59
2020-03-10 10:00:00 7.6 9 Sudeste 20 Este 0 -- -- 65
2020-03-10 09:00:00 4.8 7 Sudeste 18 Sudeste 0 -- -- 75
2020-03-10 08:00:00 3.9 10 Sudeste 35 Sudeste 0 -- -- 80
2020-03-10 07:00:00 3.3 15 Sudeste 39 Sudeste 0 -- -- 85
2020-03-10 06:00:00 3.2 10 Sudeste 38 Sudeste 0 -- -- 88
2020-03-10 05:00:00 3.2 8 Este 19 Este 0 -- -- 92
2020-03-10 04:00:00 3.2 10 Este 24 Este 0 -- -- 91
2020-03-10 03:00:00 3.1 8 Este 22 Este 0 -- -- 90
2020-03-10 02:00:00 3.1 3 Este 16 Este 0 -- -- 88
2020-03-10 01:00:00 4 5 Sudeste 20 Este 0 -- -- 83
2020-03-10 00:00:00 6.2 7 Sudeste 48 Noroeste 0 -- -- 63
2020-03-09 23:00:00 7.4 17 Noroeste 69 Oeste 0 -- -- 47
2020-03-09 22:00:00 7.6 24 Noroeste 62 Noroeste 0 -- -- 46
2020-03-09 21:00:00 6 20 Oeste 41 Oeste 0 -- -- 50
2020-03-09 20:00:00 6.4 17 Noroeste 44 Noroeste 0 -- -- 47
2020-03-09 19:00:00 6.6 21 Noroeste 44 Noroeste 0 -- -- 46
2020-03-09 18:00:00 8.2 16 Noroeste 44 Noroeste 0 -- -- 39
2020-03-09 17:00:00 9.2 19 Noroeste 50 Noroeste 0 -- -- 35
2020-03-09 16:00:00 9.2 27 Oeste 64 Noroeste 0 -- -- 38
2020-03-09 15:00:00 10 24 Noroeste 73 Oeste 0 -- -- 34
2020-03-09 14:00:00 9.2 41 Noroeste 79 Oeste 0 -- -- 34
2020-03-09 13:00:00 8.9 34 Oeste 75 Oeste 0 -- -- 35
2020-03-09 12:00:00 8.7 33 Noroeste 64 Noroeste 0 -- -- 37
2020-03-09 11:00:00 8.5 36 Noroeste 63 Noroeste 0 -- -- 40
2020-03-09 10:00:00 8 27 Noroeste 67 Noroeste 0 -- -- 41
2020-03-09 09:00:00 6.9 29 Noroeste 56 Noroeste 0 -- -- 40
2020-03-09 08:00:00 5.7 10 Noroeste 44 Oeste 0 -- -- 44
2020-03-09 07:00:00 5.7 17 Noroeste 56 Noroeste 0 -- -- 41
2020-03-09 06:00:00 2.2 6 Nordeste 15 Noroeste 0 -- -- 81
2020-03-09 05:00:00 2 4 Noroeste 8 Norte 0 -- -- 88
2020-03-09 04:00:00 2.3 3 Noroeste 9 Noroeste 0 -- -- 84
2020-03-09 03:00:00 2.2 3 Oeste 9 Noroeste 0 -- -- 84
2020-03-09 02:00:00 2.3 3 Noroeste 12 Noroeste 0 -- -- 83
2020-03-09 01:00:00 2.8 3 Noroeste 7 Noroeste 0 -- -- 80
2020-03-09 00:00:00 3.4 2 Nordeste 8 Noroeste 0 -- -- 81
2020-03-08 23:00:00 4.1 3 Noroeste 10 Noroeste 0 -- -- 80
2020-03-08 22:00:00 5.1 4 Noroeste 12 Noroeste 0 -- -- 76
2020-03-08 21:00:00 6.5 3 Noroeste 8 Noroeste 0 -- -- 73
2020-03-08 20:00:00 8.4 2 Nordeste 6 Norte 0 -- -- 69
2020-03-08 19:00:00 9.6 0 Calma 15 Sudeste 0 -- -- 64
2020-03-08 18:00:00 11 10 Este 19 Este 0 -- -- 58
2020-03-08 17:00:00 13 10 Este 26 Este 0 -- -- 50
2020-03-08 16:00:00 14.1 10 Este 27 Este 0 -- -- 49
2020-03-08 15:00:00 14.7 13 Este 26 Este 0 -- -- 47
2020-03-08 14:00:00 14.1 13 Este 23 Sudeste 0 -- -- 42
2020-03-08 13:00:00 14.4 11 Este 24 Este 0 -- -- 39
2020-03-08 12:00:00 13.4 9 Sudeste 21 Este 0 -- -- 38
2020-03-08 11:00:00 12 12 Este 21 Este 0 -- -- 38
2020-03-08 10:00:00 9.2 4 Sudoeste 7 Sudoeste 0 -- -- 46
2020-03-08 09:00:00 5.7 3 Este 5 Sudeste 0 -- -- 57
2020-03-08 08:00:00 2.2 0 Calma 8 Noroeste 0 -- -- 63
2020-03-08 07:00:00 1.9 3 Norte 10 Noroeste 0 -- -- 66
2020-03-08 06:00:00 1.8 3 Noroeste 7 Este 0 -- -- 69
2020-03-08 05:00:00 2.7 3 Noroeste 8 Este 0 -- -- 67
2020-03-08 04:00:00 3.6 3 Oeste 12 Noroeste 0 -- -- 64
2020-03-08 03:00:00 4.8 7 Noroeste 32 Noroeste 0 -- -- 60
2020-03-08 02:00:00 4.4 15 Noroeste 36 Noroeste 0 -- -- 61
2020-03-08 01:00:00 4.1 20 Noroeste 34 Oeste 0 -- -- 62
2020-03-08 00:00:00 4.6 8 Noroeste 24 Noroeste 0 -- -- 60
2020-03-07 23:00:00 5.1 12 Noroeste 33 Oeste 0 -- -- 57
2020-03-07 22:00:00 7.1 17 Oeste 40 Oeste 0 -- -- 49
2020-03-07 21:00:00 7.3 17 Oeste 39 Oeste 0 -- -- 47
2020-03-07 20:00:00 6.6 4 Norte 22 Oeste 0 -- -- 50
2020-03-07 19:00:00 7.7 5 Norte 30 Norte 0 -- -- 43
2020-03-07 18:00:00 9.6 9 Este 44 Norte 0 -- -- 31
2020-03-07 17:00:00 9.8 9 Norte 63 Noroeste 0 -- -- 28
2020-03-07 16:00:00 9.2 20 Noroeste 52 Noroeste 0 -- -- 29
2020-03-07 15:00:00 9.6 17 Noroeste 60 Oeste 0 -- -- 27
2020-03-07 14:00:00 8.3 12 Norte 65 Oeste 0 -- -- 30
2020-03-07 13:00:00 6.4 37 Noroeste 75 Noroeste 0 -- -- 40
2020-03-07 12:00:00 5.3 40 Noroeste 68 Noroeste 0 -- -- 45
2020-03-07 11:00:00 4.8 30 Noroeste 54 Noroeste 0 -- -- 47
2020-03-07 10:00:00 4.3 27 Noroeste 46 Oeste 0 -- -- 50
2020-03-07 09:00:00 2.8 22 Noroeste 55 Noroeste 0.2 -- -- 55
2020-03-07 08:00:00 1.5 25 Noroeste 53 Noroeste 0 -- -- 58
2020-03-07 07:00:00 0.7 24 Noroeste 54 Oeste 0 -- -- 60
2020-03-07 06:00:00 -0.1 16 Noroeste 37 Noroeste 0 -- -- 62
2020-03-07 05:00:00 -0.6 28 Noroeste 64 Noroeste 0 -- -- 84
2020-03-07 04:00:00 0.5 41 Noroeste 67 Noroeste 0 -- -- 70
2020-03-07 03:00:00 1.5 34 Noroeste 59 Noroeste 0 -- -- 54
2020-03-07 02:00:00 0.1 23 Noroeste 49 Noroeste 0.2 -- -- 68
2020-03-07 01:00:00 -0.9 16 Oeste 34 Noroeste 0.2 -- -- 89
2020-03-07 00:00:00 -0.4 15 Noroeste 31 Oeste 0.2 -- -- 87
2020-03-06 23:00:00 -0.2 18 Oeste 33 Noroeste 0 -- -- 86
2020-03-06 22:00:00 -0.7 18 Noroeste 62 Oeste 0 -- -- 86
2020-03-06 21:00:00 1.9 34 Noroeste 64 Noroeste 0 -- -- 49
2020-03-06 20:00:00 2.1 31 Noroeste 63 Noroeste 0 -- -- 49
2020-03-06 19:00:00 2.8 26 Noroeste 55 Noroeste 0 -- -- 50
2020-03-06 18:00:00 3.8 26 Noroeste 75 Oeste 0 -- -- 37
2020-03-06 17:00:00 6 35 Oeste 69 Oeste 0 -- -- 34
2020-03-06 16:00:00 6.4 37 Noroeste 78 Noroeste 0 -- -- 35
2020-03-06 15:00:00 7.3 36 Oeste 72 Sudoeste 0 -- -- 35
2020-03-06 14:00:00 7.2 24 Noroeste 45 Noroeste 0 -- -- 33
2020-03-06 13:00:00 6.8 11 Noroeste 24 Noroeste 0 -- -- 40
2020-03-06 12:00:00 7.7 11 Oeste 33 Sudoeste 0 -- -- 38
2020-03-06 11:00:00 7.5 17 Oeste 31 Oeste 0 -- -- 38
2020-03-06 10:00:00 5.1 4 Sudeste 14 Este 0 -- -- 48
2020-03-06 09:00:00 2 5 Este 11 Noroeste 0 -- -- 60
2020-03-06 08:00:00 0.3 7 Noroeste 16 Noroeste 0 -- -- 58
2020-03-06 07:00:00 0.3 10 Noroeste 20 Noroeste 0 -- -- 55
2020-03-06 06:00:00 -1 3 Oeste 6 Sudoeste 0 -- -- 62
2020-03-06 05:00:00 0.1 2 Sur 18 Noroeste 0 -- -- 59
2020-03-06 04:00:00 0.5 9 Noroeste 22 Noroeste 0 -- -- 56
2020-03-06 03:00:00 1.1 13 Noroeste 19 Noroeste 0 -- -- 53
2020-03-06 02:00:00 2.9 10 Noroeste 23 Noroeste 0 -- -- 43
2020-03-06 01:00:00 4.5 6 Oeste 35 Sudoeste 0 -- -- 35
2020-03-06 00:00:00 5 10 Sudoeste 37 Sudoeste 0 -- -- 36
2020-03-05 23:00:00 5.3 15 Oeste 54 Noroeste 0 -- -- 44
2020-03-05 22:00:00 5.5 14 Oeste 30 Noroeste 0 -- -- 48
2020-03-05 21:00:00 6 16 Sudoeste 50 Oeste 0 -- -- 47
2020-03-05 20:00:00 6.7 24 Oeste 48 Oeste 0 -- -- 52
2020-03-05 19:00:00 5.6 14 Noroeste 32 Oeste 0 -- -- 71
2020-03-05 18:00:00 6.2 19 Oeste 46 Noroeste 0.6 -- -- 76
2020-03-05 17:00:00 10.6 9 Noroeste 25 Oeste 0 -- -- 68
2020-03-05 16:00:00 10.7 5 Noroeste 28 Oeste 0.2 -- -- 74
2020-03-05 15:00:00 11.6 11 Oeste 22 Noroeste 0 -- -- 66
2020-03-05 14:00:00 12.1 12 Noroeste 41 Oeste 0 -- -- 61
2020-03-05 13:00:00 13.2 24 Noroeste 43 Oeste 0 -- -- 57
2020-03-05 12:00:00 14.4 13 Noroeste 41 Oeste 0 -- -- 53
2020-03-05 11:00:00 13.8 11 Oeste 42 Sudoeste 0 -- -- 53
2020-03-05 10:00:00 12.2 24 Oeste 47 Oeste 0 -- -- 57
2020-03-05 09:00:00 11.5 19 Oeste 38 Sudoeste 0 -- -- 59
2020-03-05 08:00:00 8.7 9 Oeste 25 Oeste 0 -- -- 70
2020-03-05 07:00:00 5 0 Calma 6 Noroeste 0 -- -- 89
2020-03-05 06:00:00 5 0 Calma 4 Noroeste 0 -- -- 88
2020-03-05 05:00:00 4.8 0 Calma 6 Oeste 0 -- -- 88
2020-03-05 04:00:00 5.5 2 Este 8 Noroeste 0 -- -- 86
2020-03-05 03:00:00 5.4 3 Oeste 8 Oeste 0 -- -- 86
2020-03-05 02:00:00 5.6 4 Noroeste 8 Noroeste 0 -- -- 86
2020-03-05 01:00:00 6.4 4 Norte 12 Noroeste 0 -- -- 84
2020-03-05 00:00:00 7 7 Noroeste 13 Noroeste 0 -- -- 83
2020-03-04 23:00:00 7.2 9 Noroeste 15 Noroeste 0 -- -- 83
2020-03-04 22:00:00 6.5 3 Noroeste 7 Noroeste 0 -- -- 85
2020-03-04 21:00:00 7.7 3 Noroeste 10 Noroeste 0 -- -- 79
2020-03-04 20:00:00 9 4 Norte 6 Noroeste 0 -- -- 77
2020-03-04 19:00:00 9.9 4 Sudeste 14 Este 0 -- -- 74
2020-03-04 18:00:00 10.9 4 Sur 15 Sudeste 0 -- -- 67
2020-03-04 17:00:00 12.1 9 Sudeste 22 Este 0 -- -- 61
2020-03-04 16:00:00 12.4 11 Este 25 Este 0 -- -- 56
2020-03-04 15:00:00 12.3 11 Este 26 Este 0 -- -- 52
2020-03-04 14:00:00 11.7 9 Sudeste 17 Sudeste 0 -- -- 54
2020-03-04 13:00:00 10.9 10 Este 21 Este 0 -- -- 52
2020-03-04 12:00:00 12.4 12 Este 19 Este 0 -- -- 44
2020-03-04 11:00:00 10.5 8 Sudeste 13 Este 0 -- -- 45
2020-03-04 10:00:00 6.4 2 Nordeste 10 Este 0 -- -- 53
2020-03-04 09:00:00 4.9 4 Sudeste 8 Este 0 -- -- 55
2020-03-04 08:00:00 2.2 4 Nordeste 10 Nordeste 0 -- -- 61
2020-03-04 07:00:00 3 5 Nordeste 9 Este 0 -- -- 54
2020-03-04 06:00:00 5.7 6 Este 33 Oeste 0 -- -- 39
2020-03-04 05:00:00 6.6 19 Noroeste 35 Oeste 0 -- -- 34
2020-03-04 04:00:00 6.6 25 Oeste 47 Noroeste 0 -- -- 35
2020-03-04 03:00:00 6.2 22 Noroeste 54 Noroeste 0 -- -- 36
2020-03-04 02:00:00 5.9 32 Noroeste 54 Noroeste 0 -- -- 41
2020-03-04 01:00:00 4.8 27 Noroeste 52 Noroeste 0 -- -- 50
2020-03-04 00:00:00 4.3 19 Noroeste 40 Noroeste 0 -- -- 58
2020-03-03 23:00:00 3.2 21 Noroeste 40 Noroeste 0 -- -- 79
2020-03-03 22:00:00 3.4 8 Noroeste 18 Noroeste 0 -- -- 83
2020-03-03 21:00:00 4.2 9 Oeste 48 Oeste 0 -- -- 80
2020-03-03 20:00:00 6.2 16 Oeste 54 Sudoeste 0 -- -- 67
2020-03-03 19:00:00 6.1 19 Oeste 49 Noroeste 0 -- -- 67
2020-03-03 18:00:00 5.7 8 Oeste 24 Noroeste 0 -- -- 74
2020-03-03 17:00:00 6.1 6 Oeste 18 Sudoeste 0 -- -- 75
2020-03-03 16:00:00 5.3 10 Oeste 32 Noroeste 0 -- -- 78
2020-03-03 15:00:00 8 18 Noroeste 48 Oeste 0 -- -- 56
2020-03-03 14:00:00 6.4 21 Oeste 43 Oeste 0 -- -- 59
2020-03-03 13:00:00 6.1 19 Oeste 36 Oeste 0 -- -- 60
2020-03-03 12:00:00 2.6 12 Oeste 32 Noroeste 0 -- -- 72
2020-03-03 11:00:00 3.9 5 Este 11 Sudeste 0 -- -- 55
2020-03-03 10:00:00 2.2 3 Este 21 Este 0 -- -- 62
2020-03-03 09:00:00 1.8 10 Este 32 Sudoeste 0 -- -- 60
2020-03-03 08:00:00 2.5 20 Oeste 46 Sudoeste 0 -- -- 50
2020-03-03 07:00:00 2 14 Oeste 54 Oeste 0 -- -- 51
2020-03-03 06:00:00 1.2 24 Oeste 48 Oeste 0 -- -- 54
2020-03-03 05:00:00 1.4 26 Oeste 47 Oeste 0 -- -- 52
2020-03-03 04:00:00 0.5 18 Oeste 35 Oeste 0 -- -- 57
2020-03-03 03:00:00 0.2 14 Oeste 35 Noroeste 0 -- -- 67
2020-03-03 02:00:00 0.3 12 Noroeste 27 Oeste 0 -- -- 69
2020-03-03 01:00:00 0.4 14 Oeste 32 Oeste 0 -- -- 72
2020-03-03 00:00:00 -0.5 10 Noroeste 25 Oeste 0 -- -- 85
2020-03-02 23:00:00 0.8 20 Oeste 54 Noroeste 0 -- -- 67
2020-03-02 22:00:00 2.4 19 Oeste 42 Oeste 0 -- -- 54
2020-03-02 21:00:00 2.3 22 Oeste 39 Noroeste 0 -- -- 54
2020-03-02 20:00:00 2.3 3 Noroeste 37 Sudoeste 0 -- -- 57
2020-03-02 19:00:00 3 19 Noroeste 40 Oeste 0 -- -- 53
2020-03-02 18:00:00 4.3 19 Oeste 46 Noroeste 0 -- -- 50
2020-03-02 17:00:00 5.6 27 Noroeste 50 Oeste 0 -- -- 45
2020-03-02 16:00:00 7.5 26 Noroeste 58 Oeste 0 -- -- 34
2020-03-02 15:00:00 8.3 32 Noroeste 67 Noroeste 0 -- -- 36
2020-03-02 14:00:00 7.7 30 Oeste 70 Noroeste 0 -- -- 41
2020-03-02 13:00:00 7.2 42 Noroeste 83 Noroeste 0.2 -- -- 46
2020-03-02 12:00:00 7.8 33 Noroeste 61 Noroeste 0 -- -- 54
2020-03-02 11:00:00 5.8 9 Oeste 46 Oeste 1.4 -- -- 78
2020-03-02 10:00:00 8.1 5 Este 49 Oeste 0.2 -- -- 87
2020-03-02 09:00:00 7.9 16 Oeste 43 Oeste 1.8 -- -- 82
2020-03-02 08:00:00 7.7 19 Noroeste 48 Oeste 1 -- -- 82
2020-03-02 07:00:00 6.6 11 Oeste 23 Noroeste 1.6 -- -- 88
2020-03-02 06:00:00 5.4 5 Noroeste 20 Norte 3.6 -- -- 95
2020-03-02 05:00:00 4.8 2 Sudoeste 9 Nordeste 4 -- -- 96
2020-03-02 04:00:00 4.9 4 Este 11 Norte 3.4 -- -- 96
2020-03-02 03:00:00 4.8 5 Nordeste 12 Nordeste 2.6 -- -- 95
2020-03-02 02:00:00 4.9 2 Nordeste 11 Oeste 0 -- -- 94
2020-03-02 01:00:00 5.1 4 Sudeste 6 Oeste 0 -- -- 93
2020-03-02 00:00:00 5.4 2 Norte 13 Oeste 1 -- -- 91
2020-03-01 23:00:00 5.8 2 Noroeste 15 Noroeste 0 -- -- 82
2020-03-01 22:00:00 6.3 6 Noroeste 13 Noroeste 0 -- -- 65
2020-03-01 21:00:00 7 3 Este 14 Noroeste 0 -- -- 54
2020-03-01 20:00:00 7.3 9 Noroeste 14 Noroeste 0 -- -- 49
2020-03-01 19:00:00 8.6 4 Noroeste 24 Sudoeste 0 -- -- 45
2020-03-01 18:00:00 10.6 14 Oeste 31 Oeste 0 -- -- 41
2020-03-01 17:00:00 12.4 14 Oeste 37 Noroeste 0 -- -- 40
2020-03-01 16:00:00 12.5 23 Oeste 46 Oeste 0 -- -- 40
2020-03-01 15:00:00 11.7 23 Oeste 47 Oeste 0 -- -- 45
2020-03-01 14:00:00 11.1 24 Oeste 47 Oeste 0 -- -- 46
2020-03-01 13:00:00 10.4 10 Oeste 45 Sudoeste 0 -- -- 44
2020-03-01 12:00:00 11 18 Oeste 38 Oeste 0 -- -- 42
2020-03-01 11:00:00 10.1 16 Noroeste 36 Oeste 0 -- -- 48
2020-03-01 10:00:00 8.7 14 Oeste 28 Oeste 0 -- -- 54
2020-03-01 09:00:00 7.2 13 Oeste 23 Oeste 0 -- -- 64
2020-03-01 08:00:00 5.3 0 Calma 7 Oeste 0 -- -- 91
2020-03-01 07:00:00 5.5 0 Calma 7 Este 0 -- -- 90
2020-03-01 06:00:00 5.4 0 Calma 5 Sudeste 0 -- -- 88
2020-03-01 05:00:00 5.4 2 Noroeste 4 Este 0 -- -- 89
2020-03-01 04:00:00 6 0 Calma 5 Este 0 -- -- 86
2020-03-01 03:00:00 6.4 2 Nordeste 9 Sur 0 -- -- 86
2020-03-01 02:00:00 6.7 3 Nordeste 11 Este 0 -- -- 79
2020-03-01 01:00:00 7.1 0 Calma 7 Sudeste 0 -- -- 74
2020-03-01 00:00:00 7.4 3 Este 8 Norte 0 -- -- 71
2020-02-29 23:00:00 7.7 5 Norte 7 Norte 0 -- -- 68
2020-02-29 22:00:00 7.8 0 Calma 5 Sur 0 -- -- 67
2020-02-29 21:00:00 8.3 2 Oeste 5 Nordeste 0 -- -- 64
2020-02-29 20:00:00 9.1 3 Este 24 Sudoeste 0 -- -- 63
2020-02-29 19:00:00 10.2 6 Oeste 20 Oeste 0 -- -- 58
2020-02-29 18:00:00 11.8 12 Noroeste 27 Noroeste 0 -- -- 49
2020-02-29 17:00:00 13.2 12 Oeste 30 Sudoeste 0 -- -- 45
2020-02-29 16:00:00 13.4 17 Oeste 39 Sudoeste 0 -- -- 46
2020-02-29 15:00:00 14.2 16 Sudoeste 39 Sudoeste 0 -- -- 45
2020-02-29 14:00:00 14.8 18 Sudoeste 36 Sudoeste 0 -- -- 41
2020-02-29 13:00:00 13.9 20 Oeste 64 Oeste 0 -- -- 40
2020-02-29 12:00:00 14 32 Oeste 55 Noroeste 0 -- -- 36
2020-02-29 11:00:00 13 21 Oeste 56 Noroeste 0 -- -- 43
2020-02-29 10:00:00 11.4 25 Oeste 46 Oeste 0 -- -- 46
2020-02-29 09:00:00 9.7 24 Noroeste 42 Noroeste 0 -- -- 54
2020-02-29 08:00:00 9.1 17 Oeste 37 Oeste 0 -- -- 54
2020-02-29 07:00:00 7.2 10 Noroeste 16 Noroeste 0 -- -- 56
2020-02-29 06:00:00 2.7 0 Calma 6 Oeste 0 -- -- 96
2020-02-29 05:00:00 3.2 2 Noroeste 9 Este 0 -- -- 96
2020-02-29 04:00:00 3.6 4 Este 8 Este 0 -- -- 95
2020-02-29 03:00:00 3.6 0 Calma 5 Este 0 -- -- 93
2020-02-29 02:00:00 3.8 2 Noroeste 5 Este 0 -- -- 91
2020-02-29 01:00:00 4.4 2 Noroeste 8 Noroeste 0 -- -- 87
2020-02-29 00:00:00 5.8 2 Norte 8 Oeste 0 -- -- 84